Terminal Aerodrome Forecast
Issued by NWS Pendleton, OR

Home | Current Version | Previous Version | Text Only | Print | Product List | Glossary On
Versions: 1 2 3 4 5 6 7 8 9 10 11 12 13 14 15 16 17 18 19 20
000
FTUS46 KPDT 261736
TAFPDT
TAF
KPDT 261736Z 2618/2718 14006KT 3SM -SN BR SCT020 OVC035
      TEMPO 2618/2620 2SM -SN BR BKN020
     FM262000 20008KT 3SM -SN BR OVC035
     FM270300 VRB06KT 6SM -SN OVC035
     FM270600 28006KT 3SM -SN BR OVC030
     FM271500 23006KT 6SM BR VCSH OVC040=

USA.gov is the U.S. government's official web portal to all federal, state and local government web resources and services.